createdAt,value
2019-06-08T00:02:09.760Z,0.35
2019-06-08T00:04:40.079Z,0.70
2019-06-08T00:07:10.861Z,0.80
2019-06-08T00:09:41.242Z,0.40
2019-06-08T00:12:12.956Z,0.40
2019-06-08T00:14:44.458Z,0.35
2019-06-08T00:17:31.522Z,0.37
2019-06-08T00:19:46.869Z,0.30
2019-06-08T00:22:17.694Z,0.37
2019-06-08T00:24:48.922Z,0.42
2019-06-08T00:27:20.195Z,0.42
2019-06-08T00:29:51.488Z,0.40
2019-06-08T00:32:22.597Z,0.62
2019-06-08T00:34:53.357Z,0.50
2019-06-08T00:37:24.903Z,0.60
2019-06-08T00:39:56.742Z,0.75
2019-06-08T00:42:26.964Z,0.50
2019-06-08T00:44:57.724Z,0.45
2019-06-08T00:47:46.372Z,0.57
2019-06-08T00:50:04.888Z,0.40
2019-06-08T00:52:35.169Z,0.40
2019-06-08T00:55:05.657Z,0.40
2019-06-08T00:57:36.791Z,0.57
2019-06-08T01:00:11.362Z,0.40
2019-06-08T01:02:46.582Z,0.60
2019-06-08T01:05:22.162Z,0.42
2019-06-08T01:07:53.091Z,0.50
2019-06-08T01:10:23.822Z,0.50
2019-06-08T01:12:54.646Z,0.40
2019-06-08T01:15:32.212Z,0.35
2019-06-08T01:18:03.455Z,0.50
2019-06-08T01:20:30.928Z,0.50
2019-06-08T01:23:01.166Z,0.50
2019-06-08T01:25:32.190Z,0.70
2019-06-08T01:28:02.434Z,0.55
2019-06-08T01:30:32.779Z,0.40
2019-06-08T01:33:03.473Z,0.37
2019-06-08T01:35:34.485Z,0.40
2019-06-08T01:38:05.260Z,0.50
2019-06-08T01:40:36.109Z,0.50
2019-06-08T01:43:07.117Z,0.33
2019-06-08T01:45:37.659Z,0.60
2019-06-08T01:48:19.439Z,0.47
2019-06-08T01:50:40.051Z,0.40
2019-06-08T01:53:10.481Z,0.40
2019-06-08T01:55:41.021Z,0.30
2019-06-08T01:58:11.529Z,0.50
2019-06-08T02:00:42.018Z,0.60
2019-06-08T02:03:12.766Z,0.50
2019-06-08T02:05:43.481Z,0.45
2019-06-08T02:08:14.190Z,0.60
2019-06-08T02:10:44.680Z,0.40
2019-06-08T02:13:14.958Z,0.40
2019-06-08T02:15:46.420Z,0.40
2019-06-08T02:18:17.376Z,0.42
2019-06-08T02:20:48.085Z,0.55
2019-06-08T02:23:18.667Z,0.70
2019-06-08T02:25:49.196Z,0.40
2019-06-08T02:28:19.867Z,0.68
2019-06-08T02:30:51.334Z,0.45
2019-06-08T02:33:21.541Z,0.50
2019-06-08T02:35:53.234Z,0.60
2019-06-08T02:38:23.840Z,0.50
2019-06-08T02:40:54.071Z,0.60
2019-06-08T02:43:24.689Z,0.70
2019-06-08T02:45:55.470Z,0.68
2019-06-08T02:48:25.623Z,0.50
2019-06-08T02:50:57.174Z,0.50
2019-06-08T02:53:29.462Z,0.60
2019-06-08T02:56:01.234Z,0.50
2019-06-08T02:58:36.059Z,0.70
2019-06-08T03:01:05.669Z,0.50
2019-06-08T03:03:38.440Z,0.50
2019-06-08T03:06:09.155Z,0.72
2019-06-08T03:08:42.093Z,0.50
2019-06-08T03:11:13.627Z,0.62
2019-06-08T03:13:47.377Z,0.60
2019-06-08T03:16:18.117Z,0.85
2019-06-08T03:18:48.858Z,0.55
2019-06-08T03:21:19.185Z,0.60
2019-06-08T03:23:50.174Z,0.90
2019-06-08T03:26:20.960Z,0.60
2019-06-08T03:28:51.358Z,0.70
2019-06-08T03:31:21.672Z,0.53
2019-06-08T03:33:55.872Z,0.50
2019-06-08T03:36:24.116Z,0.70
2019-06-08T03:38:54.952Z,0.70
2019-06-08T03:41:25.253Z,0.70
2019-06-08T03:43:55.817Z,0.68
2019-06-08T03:46:26.535Z,0.60
2019-06-08T03:48:57.886Z,1.30
2019-06-08T03:51:29.052Z,0.50
2019-06-08T03:54:00.008Z,0.40
2019-06-08T03:56:30.697Z,0.55
2019-06-08T03:59:01.104Z,0.40
2019-06-08T04:01:31.777Z,0.60
2019-06-08T04:04:02.133Z,0.50
2019-06-08T04:06:32.891Z,0.55
2019-06-08T04:09:05.246Z,0.50
2019-06-08T04:11:37.678Z,0.65
2019-06-08T04:14:08.113Z,0.57
2019-06-08T04:16:40.163Z,0.60
2019-06-08T04:19:10.847Z,0.70
2019-06-08T04:21:41.818Z,0.90
2019-06-08T04:24:12.440Z,0.70
2019-06-08T04:26:45.506Z,0.70
2019-06-08T04:29:17.488Z,0.95
2019-06-08T04:31:47.517Z,1.10
2019-06-08T04:34:18.162Z,0.60
2019-06-08T04:36:50.353Z,0.60
2019-06-08T04:39:20.709Z,0.80
2019-06-08T04:41:51.058Z,0.75
2019-06-08T04:44:22.013Z,0.70
2019-06-08T04:46:52.229Z,0.60
2019-06-08T04:49:22.413Z,0.45
2019-06-08T04:51:53.150Z,0.60
2019-06-08T04:54:23.698Z,0.80
2019-06-08T04:56:54.355Z,0.68
2019-06-08T04:59:24.912Z,0.55
2019-06-08T05:01:55.880Z,0.65
2019-06-08T05:04:26.032Z,0.68
2019-06-08T05:06:56.368Z,0.50
2019-06-08T05:09:27.157Z,0.57
2019-06-08T05:11:58.218Z,0.55
2019-06-08T05:14:28.542Z,0.60
2019-06-08T05:16:59.098Z,0.50
2019-06-08T05:19:29.342Z,0.70
2019-06-08T05:22:00.444Z,0.80
2019-06-08T05:24:31.258Z,0.75
2019-06-08T05:27:01.947Z,0.60
2019-06-08T05:29:32.188Z,0.88
2019-06-08T05:32:03.046Z,1.05
2019-06-08T05:34:33.274Z,0.93
2019-06-08T05:37:03.594Z,0.70
2019-06-08T05:39:33.790Z,0.70
2019-06-08T05:42:04.556Z,0.95
2019-06-08T05:44:34.954Z,0.90
2019-06-08T05:47:05.652Z,0.95
2019-06-08T05:49:36.098Z,0.82
2019-06-08T05:52:06.557Z,0.90
2019-06-08T05:54:37.062Z,0.80
2019-06-08T05:57:08.138Z,0.93
2019-06-08T05:59:38.368Z,0.90
2019-06-08T06:02:09.218Z,0.90
2019-06-08T06:04:40.913Z,0.80
2019-06-08T06:07:11.408Z,1.02
2019-06-08T06:09:45.141Z,0.70
2019-06-08T06:12:17.535Z,0.65
2019-06-08T06:14:49.085Z,2.25
2019-06-08T06:17:21.196Z,0.82
2019-06-08T06:19:51.620Z,0.95
2019-06-08T06:22:23.206Z,1.57
2019-06-08T06:24:54.001Z,0.68
2019-06-08T06:27:24.998Z,0.60
2019-06-08T06:29:55.496Z,0.80
2019-06-08T06:32:26.040Z,1.02
2019-06-08T06:34:56.938Z,1.32
2019-06-08T06:37:27.518Z,0.60
2019-06-08T06:39:58.115Z,0.80
2019-06-08T06:42:28.384Z,1.00
2019-06-08T06:44:59.131Z,0.50
2019-06-08T06:47:29.998Z,0.60
2019-06-08T06:50:00.305Z,0.68
2019-06-08T06:52:30.809Z,0.72
2019-06-08T06:55:01.261Z,0.60
2019-06-08T06:57:36.036Z,0.85
2019-06-08T07:00:04.976Z,0.78
2019-06-08T07:02:35.390Z,0.80
2019-06-08T07:05:06.719Z,0.55
2019-06-08T07:07:37.319Z,0.62
2019-06-08T07:10:08.750Z,0.70
2019-06-08T07:12:39.448Z,0.95
2019-06-08T07:15:09.878Z,0.80
2019-06-08T07:17:40.642Z,0.80
2019-06-08T07:20:10.887Z,0.80
2019-06-08T07:22:41.107Z,1.00
2019-06-08T07:25:13.051Z,0.90
2019-06-08T07:27:43.694Z,0.60
2019-06-08T07:30:14.987Z,0.95
2019-06-08T07:32:46.510Z,0.70
2019-06-08T07:35:18.373Z,0.90
2019-06-08T07:37:50.126Z,1.12
2019-06-08T07:40:21.197Z,0.80
2019-06-08T07:42:53.387Z,0.80
2019-06-08T07:45:24.639Z,0.60
2019-06-08T07:47:56.083Z,0.40
2019-06-08T07:50:26.780Z,0.55
2019-06-08T07:52:58.862Z,0.50
2019-06-08T07:55:29.544Z,0.70
2019-06-08T07:58:00.345Z,0.80
2019-06-08T08:00:31.003Z,0.70
2019-06-08T08:03:01.998Z,0.80
2019-06-08T08:05:33.582Z,1.00
2019-06-08T08:08:04.118Z,0.88
2019-06-08T08:10:34.898Z,1.00
2019-06-08T08:13:05.190Z,0.70
2019-06-08T08:15:35.755Z,0.60
2019-06-08T08:18:06.093Z,0.70
2019-06-08T08:20:36.912Z,0.60
2019-06-08T08:23:09.176Z,0.60
2019-06-08T08:25:41.472Z,0.80
2019-06-08T08:28:11.991Z,0.82
2019-06-08T08:30:42.630Z,0.85
2019-06-08T08:33:12.827Z,1.00
2019-06-08T08:35:43.174Z,0.82
2019-06-08T08:38:14.307Z,0.90
2019-06-08T08:40:44.483Z,0.80
2019-06-08T08:43:17.803Z,0.80
2019-06-08T08:45:48.107Z,0.80
2019-06-08T08:48:25.272Z,0.90
2019-06-08T08:50:51.325Z,0.70
2019-06-08T08:53:22.965Z,1.25
2019-06-08T08:55:54.256Z,0.65
2019-06-08T08:58:24.949Z,0.90
2019-06-08T09:00:55.340Z,0.80
2019-06-08T09:03:33.107Z,0.90
2019-06-08T09:06:01.889Z,0.80
2019-06-08T09:08:30.395Z,0.70
2019-06-08T09:11:03.563Z,0.80
2019-06-08T09:13:33.506Z,0.60
2019-06-08T09:16:04.401Z,0.93
2019-06-08T09:18:37.360Z,0.88
2019-06-08T09:21:08.392Z,0.78
2019-06-08T09:23:38.950Z,1.10
2019-06-08T09:26:12.828Z,0.90
2019-06-08T09:28:42.736Z,0.90
2019-06-08T09:31:14.240Z,0.93
2019-06-08T09:33:55.170Z,1.00
2019-06-08T09:36:17.821Z,1.02
2019-06-08T09:38:53.048Z,1.00
2019-06-08T09:41:21.859Z,1.20
2019-06-08T09:43:53.935Z,1.10
2019-06-08T09:46:27.680Z,1.00
2019-06-08T09:48:59.477Z,0.98
2019-06-08T09:51:30.624Z,0.70
2019-06-08T09:54:04.081Z,0.80
2019-06-08T09:56:34.845Z,1.10
2019-06-08T09:59:10.017Z,1.10
2019-06-08T10:01:43.123Z,1.00
2019-06-08T10:04:14.288Z,1.20
2019-06-08T10:06:47.816Z,0.93
2019-06-08T10:09:18.911Z,1.12
2019-06-08T10:11:50.261Z,0.90
2019-06-08T10:14:21.533Z,1.20
2019-06-08T10:16:52.518Z,1.00
2019-06-08T10:19:27.369Z,0.90
2019-06-08T10:21:58.904Z,0.98
2019-06-08T10:24:29.384Z,0.90
2019-06-08T10:27:01.377Z,1.00
2019-06-08T10:29:32.717Z,0.98
2019-06-08T10:32:06.394Z,1.40
2019-06-08T10:34:38.639Z,1.00
2019-06-08T10:37:13.204Z,1.20
2019-06-08T10:39:43.917Z,1.02
2019-06-08T10:42:14.926Z,1.17
2019-06-08T10:44:45.597Z,1.20
2019-06-08T10:47:16.924Z,1.27
2019-06-08T10:49:49.007Z,1.35
2019-06-08T10:52:20.314Z,1.65
2019-06-08T10:54:52.233Z,1.35
2019-06-08T10:57:23.326Z,1.30
2019-06-08T10:59:54.475Z,1.07
2019-06-08T11:02:25.016Z,1.05
2019-06-08T11:04:58.764Z,1.17
2019-06-08T11:07:29.612Z,1.20
2019-06-08T11:10:00.268Z,0.90
2019-06-08T11:12:33.070Z,1.00
2019-06-08T11:15:04.794Z,1.17
2019-06-08T11:17:37.885Z,1.12
2019-06-08T11:20:11.847Z,0.88
2019-06-08T11:22:40.260Z,1.25
2019-06-08T11:25:16.010Z,1.10
2019-06-08T11:27:43.629Z,1.00
2019-06-08T11:30:23.733Z,1.10
2019-06-08T11:32:48.033Z,1.67
2019-06-08T11:35:19.049Z,1.17
2019-06-08T11:37:51.928Z,1.42
2019-06-08T11:40:22.307Z,1.22
2019-06-08T11:42:52.577Z,1.12
2019-06-08T11:45:23.264Z,1.22
2019-06-08T11:47:53.591Z,1.00
2019-06-08T11:50:41.548Z,1.00
2019-06-08T11:53:13.633Z,1.45
2019-06-08T11:55:42.028Z,1.27
2019-06-08T11:58:13.853Z,1.20
2019-06-08T12:01:11.602Z,1.30
2019-06-08T12:03:40.873Z,1.30
2019-06-08T12:06:14.135Z,1.22
2019-06-08T12:08:44.391Z,1.70
2019-06-08T12:11:18.845Z,1.00
2019-06-08T12:13:47.377Z,0.90
2019-06-08T12:16:21.468Z,1.20
2019-06-08T12:18:49.982Z,0.85
2019-06-08T12:21:20.799Z,1.40
2019-06-08T12:23:51.438Z,1.35
2019-06-08T12:26:21.979Z,1.02
2019-06-08T12:28:53.547Z,1.55
2019-06-08T12:31:23.656Z,1.17
2019-06-08T12:33:54.801Z,1.05
2019-06-08T12:36:25.278Z,1.20
2019-06-08T12:38:55.512Z,1.05
2019-06-08T12:41:31.173Z,1.20
2019-06-08T12:43:59.161Z,1.17
2019-06-08T12:46:29.564Z,1.22
2019-06-08T12:48:59.884Z,1.00
2019-06-08T12:51:29.988Z,0.90
2019-06-08T12:54:00.500Z,1.07
2019-06-08T12:56:30.620Z,1.00
2019-06-08T12:59:01.464Z,0.95
2019-06-08T13:01:31.949Z,1.10
2019-06-08T13:04:02.429Z,1.32
2019-06-08T13:06:32.913Z,0.98
2019-06-08T13:09:03.412Z,1.05
2019-06-08T13:11:33.969Z,1.02
2019-06-08T13:14:04.135Z,1.12
2019-06-08T13:16:34.780Z,1.27
2019-06-08T13:19:05.150Z,1.52
2019-06-08T13:21:38.450Z,1.57
2019-06-08T13:24:10.180Z,1.10
2019-06-08T13:26:40.987Z,0.90
2019-06-08T13:29:12.545Z,0.90
2019-06-08T13:31:43.510Z,1.05
2019-06-08T13:34:15.670Z,1.20
2019-06-08T13:36:48.488Z,1.10
2019-06-08T13:39:21.233Z,1.17
2019-06-08T13:41:52.109Z,1.00
2019-06-08T13:44:22.859Z,0.90
2019-06-08T13:46:53.442Z,0.78
2019-06-08T13:49:27.033Z,1.27
2019-06-08T13:51:58.178Z,1.02
2019-06-08T13:54:31.279Z,1.00
2019-06-08T13:57:01.845Z,1.00
2019-06-08T13:59:33.635Z,0.80
2019-06-08T14:02:04.324Z,1.00
2019-06-08T14:04:34.766Z,0.93
2019-06-08T14:07:07.604Z,1.37
2019-06-08T14:09:38.285Z,1.22
2019-06-08T14:12:08.596Z,1.15
2019-06-08T14:14:39.947Z,1.50
2019-06-08T14:17:10.705Z,1.15
2019-06-08T14:19:40.921Z,0.95
2019-06-08T14:22:11.199Z,1.12
2019-06-08T14:24:41.384Z,1.50
2019-06-08T14:27:12.388Z,1.17
2019-06-08T14:29:43.068Z,1.30
2019-06-08T14:32:13.710Z,1.15
2019-06-08T14:34:43.949Z,1.10
2019-06-08T14:37:14.135Z,1.30
2019-06-08T14:39:44.779Z,0.98
2019-06-08T14:42:19.830Z,1.20
2019-06-08T14:44:47.810Z,0.90
2019-06-08T14:47:18.770Z,1.10
2019-06-08T14:49:49.052Z,1.07
2019-06-08T14:52:21.873Z,1.02
2019-06-08T14:54:51.626Z,1.00
2019-06-08T14:57:23.357Z,1.20
2019-06-08T14:59:56.410Z,1.00
2019-06-08T15:02:28.163Z,1.30
2019-06-08T15:04:58.397Z,1.27
2019-06-08T15:07:32.558Z,1.55
2019-06-08T15:10:02.057Z,0.88
2019-06-08T15:12:32.858Z,1.00
2019-06-08T15:15:03.264Z,0.88
2019-06-08T15:17:33.860Z,1.07
2019-06-08T15:20:05.928Z,1.20
2019-06-08T15:22:38.754Z,1.20
2019-06-08T15:25:11.083Z,1.30
2019-06-08T15:27:42.406Z,1.25
2019-06-08T15:30:17.857Z,1.20
2019-06-08T15:32:48.716Z,0.80
2019-06-08T15:35:19.615Z,1.02
2019-06-08T15:37:53.279Z,0.98
2019-06-08T15:40:25.442Z,1.00
2019-06-08T15:42:58.579Z,0.95
2019-06-08T15:45:31.301Z,0.80
2019-06-08T15:48:01.161Z,0.85
2019-06-08T15:50:32.622Z,0.93
2019-06-08T15:53:03.866Z,1.30
2019-06-08T15:55:34.549Z,0.93
2019-06-08T15:58:04.800Z,0.95
2019-06-08T16:00:35.451Z,1.00
2019-06-08T16:03:05.728Z,0.98
2019-06-08T16:05:37.370Z,0.93
2019-06-08T16:08:08.817Z,0.80
2019-06-08T16:10:40.138Z,1.07
2019-06-08T16:13:10.339Z,0.80
2019-06-08T16:15:40.520Z,1.00
2019-06-08T16:18:11.273Z,1.05
2019-06-08T16:20:42.211Z,0.93
2019-06-08T16:23:12.640Z,1.20
2019-06-08T16:25:43.372Z,0.85
2019-06-08T16:28:13.737Z,0.90
2019-06-08T16:30:44.475Z,0.80
2019-06-08T16:33:14.657Z,0.90
2019-06-08T16:35:44.939Z,1.52
2019-06-08T16:38:16.127Z,1.00
2019-06-08T16:40:49.184Z,0.85
2019-06-08T16:43:19.879Z,0.80
2019-06-08T16:45:50.913Z,0.95
2019-06-08T16:48:22.259Z,1.00
2019-06-08T16:50:53.407Z,0.70
2019-06-08T16:53:25.109Z,0.80
2019-06-08T16:55:56.463Z,0.93
2019-06-08T16:58:27.852Z,0.72
2019-06-08T17:00:58.119Z,0.95
2019-06-08T17:03:28.766Z,1.22
2019-06-08T17:05:59.107Z,1.20
2019-06-08T17:08:29.482Z,0.90
2019-06-08T17:10:59.745Z,1.32
2019-06-08T17:13:30.134Z,1.35
2019-06-08T17:16:00.946Z,0.95
2019-06-08T17:18:32.227Z,0.70
2019-06-08T17:21:02.975Z,0.90
2019-06-08T17:23:34.446Z,0.95
2019-06-08T17:26:04.999Z,1.05
2019-06-08T17:28:35.371Z,1.00
2019-06-08T17:31:06.206Z,1.00
2019-06-08T17:33:37.267Z,1.32
2019-06-08T17:36:09.037Z,1.02
2019-06-08T17:38:39.873Z,0.90
2019-06-08T17:41:10.413Z,1.00
2019-06-08T17:43:40.758Z,0.88
2019-06-08T17:46:10.953Z,0.93
2019-06-08T17:48:43.118Z,1.07
2019-06-08T17:51:14.956Z,0.82
2019-06-08T17:53:46.276Z,1.10
2019-06-08T17:56:17.432Z,1.35
2019-06-08T17:58:47.811Z,2.75
2019-06-08T18:01:17.986Z,1.50
2019-06-08T18:03:48.367Z,1.27
2019-06-08T18:06:18.771Z,1.20
2019-06-08T18:08:49.051Z,1.22
2019-06-08T18:11:19.459Z,1.10
2019-06-08T18:13:50.570Z,1.25
2019-06-08T18:16:22.058Z,1.20
2019-06-08T18:18:53.302Z,1.20
2019-06-08T18:21:24.244Z,1.37
2019-06-08T18:23:57.193Z,3.15
2019-06-08T18:26:28.277Z,1.30
2019-06-08T18:28:58.330Z,1.10
2019-06-08T18:31:28.971Z,1.20
2019-06-08T18:34:01.991Z,1.10
2019-06-08T18:36:31.274Z,1.32
2019-06-08T18:39:01.851Z,1.30
2019-06-08T18:41:34.999Z,1.10
2019-06-08T18:44:08.273Z,1.60
2019-06-08T18:46:39.358Z,1.37
2019-06-08T18:49:10.977Z,1.12
2019-06-08T18:51:42.806Z,1.40
2019-06-08T18:54:14.855Z,1.00
2019-06-08T18:56:48.690Z,1.00
2019-06-08T18:59:19.000Z,1.07
2019-06-08T19:01:49.870Z,1.10
2019-06-08T19:04:21.003Z,1.50
2019-06-08T19:06:51.341Z,1.30
2019-06-08T19:09:25.166Z,1.40
2019-06-08T19:11:57.445Z,1.05
2019-06-08T19:14:29.588Z,1.50
2019-06-08T19:17:00.736Z,1.42
2019-06-08T19:19:32.583Z,1.17
2019-06-08T19:22:03.745Z,1.30
2019-06-08T19:24:35.841Z,1.45
2019-06-08T19:27:08.260Z,1.65
2019-06-08T19:29:42.136Z,4.15
2019-06-08T19:32:17.058Z,10.40
2019-06-08T19:34:52.324Z,5.90
2019-06-08T19:37:17.611Z,4.17
2019-06-08T19:39:52.930Z,6.17
2019-06-08T19:42:35.905Z,3.83
2019-06-08T19:45:04.912Z,4.37
2019-06-08T19:47:28.082Z,1.80
2019-06-08T19:49:58.804Z,1.45
2019-06-08T19:52:29.103Z,1.22
2019-06-08T19:54:59.436Z,1.87
2019-06-08T19:57:29.590Z,1.40
2019-06-08T20:00:00.396Z,2.02
2019-06-08T20:02:31.928Z,2.08
2019-06-08T20:05:02.313Z,1.82
2019-06-08T20:07:32.605Z,1.57
2019-06-08T20:10:03.726Z,1.40
2019-06-08T20:12:37.010Z,1.77
2019-06-08T20:15:08.594Z,1.35
2019-06-08T20:17:39.496Z,1.50
2019-06-08T20:20:11.314Z,1.50
2019-06-08T20:22:43.797Z,1.40
2019-06-08T20:25:17.848Z,1.70
2019-06-08T20:27:51.344Z,1.40
2019-06-08T20:30:20.991Z,1.50
2019-06-08T20:32:53.119Z,1.32
2019-06-08T20:35:23.511Z,1.70
2019-06-08T20:37:54.005Z,1.60
2019-06-08T20:40:24.453Z,1.62
2019-06-08T20:42:57.571Z,1.60
2019-06-08T20:45:28.768Z,1.37
2019-06-08T20:47:59.899Z,1.90
2019-06-08T20:50:30.469Z,1.52
2019-06-08T20:53:03.101Z,1.22
2019-06-08T20:55:33.565Z,2.00
2019-06-08T20:58:04.063Z,1.22
2019-06-08T21:00:34.645Z,1.30
2019-06-08T21:03:07.920Z,1.20
2019-06-08T21:05:37.391Z,1.55
2019-06-08T21:08:08.416Z,2.00
2019-06-08T21:10:39.301Z,1.60
2019-06-08T21:13:09.803Z,1.75
2019-06-08T21:15:40.363Z,2.15
2019-06-08T21:18:10.691Z,2.02
2019-06-08T21:20:41.321Z,1.60
2019-06-08T21:23:12.075Z,1.87
2019-06-08T21:25:42.555Z,2.25
2019-06-08T21:28:13.153Z,4.28
2019-06-08T21:30:43.798Z,2.10
2019-06-08T21:33:14.383Z,1.92
2019-06-08T21:35:44.778Z,2.10
2019-06-08T21:38:23.280Z,2.30
2019-06-08T21:40:49.516Z,1.80
2019-06-08T21:43:19.700Z,2.10
2019-06-08T21:45:51.956Z,1.35
2019-06-08T21:48:23.119Z,1.47
2019-06-08T21:50:55.025Z,1.75
2019-06-08T21:53:27.414Z,1.80
2019-06-08T21:55:58.439Z,1.60
2019-06-08T21:58:29.087Z,1.60
2019-06-08T22:01:01.129Z,2.00
2019-06-08T22:03:34.149Z,2.00
2019-06-08T22:06:04.478Z,1.80
2019-06-08T22:08:34.676Z,1.80
2019-06-08T22:11:05.018Z,2.60
2019-06-08T22:13:37.226Z,2.42
2019-06-08T22:16:08.288Z,2.47
2019-06-08T22:18:40.296Z,2.25
2019-06-08T22:21:10.924Z,2.15
2019-06-08T22:23:41.583Z,2.33
2019-06-08T22:26:12.022Z,2.17
2019-06-08T22:28:42.360Z,2.52
2019-06-08T22:31:13.688Z,2.40
2019-06-08T22:33:44.418Z,2.37
2019-06-08T22:36:14.818Z,1.90
2019-06-08T22:38:47.612Z,2.30
2019-06-08T22:41:17.413Z,2.20
2019-06-08T22:43:48.263Z,2.00
2019-06-08T22:46:19.016Z,2.00
2019-06-08T22:48:49.620Z,2.15
2019-06-08T22:51:20.267Z,2.27
2019-06-08T22:53:51.058Z,2.15
2019-06-08T22:56:21.443Z,1.75
2019-06-08T22:58:54.243Z,1.90
2019-06-08T23:01:24.193Z,2.30
2019-06-08T23:03:56.154Z,2.37
2019-06-08T23:06:28.054Z,2.10
2019-06-08T23:09:01.441Z,2.35
2019-06-08T23:11:32.633Z,2.60
2019-06-08T23:14:05.007Z,2.12
2019-06-08T23:16:34.874Z,2.55
2019-06-08T23:19:07.842Z,2.27
2019-06-08T23:21:38.246Z,2.27
2019-06-08T23:24:09.142Z,2.20
2019-06-08T23:26:39.320Z,2.05
2019-06-08T23:29:09.922Z,2.33
2019-06-08T23:31:41.836Z,2.22
2019-06-08T23:34:12.095Z,2.15
2019-06-08T23:36:55.345Z,1.90
2019-06-08T23:39:14.812Z,2.08
2019-06-08T23:41:45.258Z,2.17
2019-06-08T23:44:17.610Z,2.62
2019-06-08T23:46:50.510Z,2.50
2019-06-08T23:49:21.425Z,2.20
2019-06-08T23:51:51.636Z,2.08
2019-06-08T23:54:22.308Z,2.00
2019-06-08T23:56:52.903Z,1.95
2019-06-08T23:59:23.195Z,1.85
